createdAt,value
2017-01-04T00:00:13.516Z,89.69
2017-01-04T00:01:22.246Z,90.12
2017-01-04T00:02:30.931Z,91.16
2017-01-04T00:03:39.622Z,90.87
2017-01-04T00:04:48.309Z,91.91
2017-01-04T00:05:56.997Z,91.63
2017-01-04T00:07:05.679Z,92
2017-01-04T00:08:14.363Z,92.29
2017-01-04T00:09:23.088Z,92.47
2017-01-04T00:10:31.775Z,92.76
2017-01-04T00:11:40.464Z,92.95
2017-01-04T00:12:49.151Z,93.7
2017-01-04T00:13:57.836Z,93.42
2017-01-04T00:15:06.518Z,93.23
2017-01-04T00:16:15.200Z,93.8
2017-01-04T00:17:23.882Z,95.21
2017-01-04T00:18:32.566Z,95.03
2017-01-04T00:19:41.251Z,95.68
2017-01-04T00:20:49.933Z,96.06
2017-01-04T00:21:58.627Z,96.44
2017-01-04T00:23:07.313Z,96.34
2017-01-04T00:24:16.024Z,96.58
2017-01-04T00:25:24.705Z,96.48
2017-01-04T00:26:33.393Z,97.33
2017-01-04T00:27:42.075Z,96.06
2017-01-04T00:28:50.764Z,96.53
2017-01-04T00:29:59.447Z,96.11
2017-01-04T00:31:08.133Z,95.97
2017-01-04T00:32:16.817Z,95.97
2017-01-04T00:33:25.502Z,95.59
2017-01-04T00:34:34.195Z,95.4
2017-01-04T00:35:42.883Z,95.68
2017-01-04T00:36:51.567Z,96.25
2017-01-04T00:38:00.252Z,96.25
2017-01-04T00:39:08.936Z,95.21
2017-01-04T00:40:17.622Z,94.55
2017-01-04T00:41:26.313Z,95.12
2017-01-04T00:42:35.023Z,95.12
2017-01-04T00:43:43.704Z,94.84
2017-01-04T00:44:52.392Z,94.84
2017-01-04T00:46:01.083Z,94.65
2017-01-04T00:47:09.766Z,94.84
2017-01-04T00:48:18.447Z,95.12
2017-01-04T00:49:27.139Z,95.12
2017-01-04T00:50:35.834Z,94.65
2017-01-04T00:51:44.556Z,94.65
2017-01-04T00:52:53.237Z,94.46
2017-01-04T00:54:01.926Z,94.46
2017-01-04T00:55:10.611Z,94.27
2017-01-04T00:56:19.295Z,94.27
2017-01-04T00:57:27.984Z,94.27
2017-01-04T00:58:36.677Z,94.36
2017-01-04T00:59:45.355Z,94.08
2017-01-04T01:00:54.044Z,94.84
2017-01-04T01:02:02.725Z,94.55
2017-01-04T01:03:11.410Z,94.46
2017-01-04T01:04:20.098Z,94.55
2017-01-04T01:05:28.783Z,94.36
2017-01-04T01:06:37.461Z,94.84
2017-01-04T01:07:46.145Z,95.12
2017-01-04T01:08:54.834Z,95.31
2017-01-04T01:10:03.522Z,94.84
2017-01-04T01:11:12.201Z,94.65
2017-01-04T01:12:20.892Z,94.08
2017-01-04T01:13:29.620Z,93.32
2017-01-04T01:14:38.315Z,92.47
2017-01-04T01:15:47.003Z,92.66
2017-01-04T01:16:55.692Z,92.66
2017-01-04T01:18:04.374Z,92.76
2017-01-04T01:19:13.064Z,93.23
2017-01-04T01:20:21.749Z,93.23
2017-01-04T01:21:30.436Z,92.85
2017-01-04T01:22:39.119Z,92.85
2017-01-04T01:23:47.806Z,93.42
2017-01-04T01:24:56.498Z,92.95
2017-01-04T01:26:05.190Z,92.76
2017-01-04T01:27:13.883Z,92.38
2017-01-04T01:28:22.628Z,92.76
2017-01-04T01:29:31.314Z,92.66
2017-01-04T01:30:39.995Z,93.42
2017-01-04T01:31:48.680Z,92.71
2017-01-04T01:32:57.371Z,93.51
2017-01-04T01:34:06.086Z,92.99
2017-01-04T01:35:14.773Z,92.71
2017-01-04T01:36:23.461Z,93.47
2017-01-04T01:37:32.151Z,92.71
2017-01-04T01:38:40.842Z,92.33
2017-01-04T01:39:49.526Z,92.71
2017-01-04T01:40:58.210Z,93.09
2017-01-04T01:42:06.899Z,92.47
2017-01-04T01:43:15.582Z,93.32
2017-01-04T01:44:24.268Z,93.89
2017-01-04T01:45:32.950Z,94.27
2017-01-04T01:46:41.641Z,94.84
2017-01-04T01:47:50.365Z,94.84
2017-01-04T01:48:59.047Z,94.55
2017-01-04T01:50:08.143Z,95.03
2017-01-04T01:51:16.828Z,94.65
2017-01-04T01:52:25.513Z,95.31
2017-01-04T01:53:34.229Z,94.84
2017-01-04T01:54:42.917Z,95.31
2017-01-04T01:55:51.604Z,94.93
2017-01-04T01:57:00.291Z,95.4
2017-01-04T01:58:08.978Z,95.5
2017-01-04T01:59:17.663Z,95.87
2017-01-04T02:00:26.348Z,95.97
2017-01-04T02:01:35.058Z,96.06
2017-01-04T02:02:43.744Z,96.15
2017-01-04T02:03:52.432Z,96.06
2017-01-04T02:05:01.122Z,96.25
2017-01-04T02:06:09.811Z,96.06
2017-01-04T02:07:18.494Z,96.06
2017-01-04T02:08:27.188Z,96.34
2017-01-04T02:09:35.873Z,96.15
2017-01-04T02:10:44.562Z,95.31
2017-01-04T02:11:53.264Z,95.87
2017-01-04T02:13:01.950Z,95.4
2017-01-04T02:14:10.645Z,95.5
2017-01-04T02:15:19.330Z,95.68
2017-01-04T02:16:28.021Z,95.4
2017-01-04T02:17:36.701Z,95.97
2017-01-04T02:18:45.385Z,95.97
2017-01-04T02:19:54.069Z,96.15
2017-01-04T02:21:02.760Z,96.15
2017-01-04T02:22:11.450Z,96.34
2017-01-04T02:23:20.133Z,96.01
2017-01-04T02:24:28.820Z,95.73
2017-01-04T02:25:37.509Z,95.07
2017-01-04T02:26:46.193Z,93.18
2017-01-04T02:27:54.880Z,93.09
2017-01-04T02:29:03.572Z,92.24
2017-01-04T02:30:12.256Z,92.24
2017-01-04T02:31:20.952Z,92.14
2017-01-04T02:32:29.642Z,91.3
2017-01-04T02:33:38.320Z,91.3
2017-01-04T02:34:47.003Z,91.39
2017-01-04T02:35:55.686Z,91.3
2017-01-04T02:37:04.371Z,91.39
2017-01-04T02:38:13.052Z,91.39
2017-01-04T02:39:21.742Z,91.96
2017-01-04T02:40:30.428Z,92.24
2017-01-04T02:41:39.115Z,92.14
2017-01-04T02:42:47.808Z,92.24
2017-01-04T02:43:56.489Z,91.96
2017-01-04T02:45:05.173Z,91.49
2017-01-04T02:46:13.898Z,90.82
2017-01-04T02:47:22.581Z,91.3
2017-01-04T02:48:31.266Z,91.11
2017-01-04T02:49:39.957Z,90.82
2017-01-04T02:50:48.647Z,91.3
2017-01-04T02:51:57.334Z,91.58
2017-01-04T02:53:06.027Z,91.3
2017-01-04T02:54:14.709Z,91.49
2017-01-04T02:55:23.403Z,91.39
2017-01-04T02:56:32.097Z,91.3
2017-01-04T02:57:40.787Z,91.2
2017-01-04T02:58:49.471Z,91.96
2017-01-04T02:59:58.153Z,91.58
2017-01-04T03:01:06.838Z,91.86
2017-01-04T03:02:15.525Z,92.05
2017-01-04T03:03:24.217Z,91.11
2017-01-04T03:04:32.903Z,91.3
2017-01-04T03:05:41.585Z,91.96
2017-01-04T03:06:50.271Z,91.67
2017-01-04T03:07:58.963Z,92.24
2017-01-04T03:09:07.647Z,92.71
2017-01-04T03:10:16.339Z,91.96
2017-01-04T03:11:25.024Z,91.49
2017-01-04T03:12:33.715Z,91.2
2017-01-04T03:13:42.402Z,90.82
2017-01-04T03:14:51.090Z,90.92
2017-01-04T03:15:59.772Z,90.92
2017-01-04T03:17:08.452Z,91.3
2017-01-04T03:18:17.133Z,91.39
2017-01-04T03:19:25.816Z,91.77
2017-01-04T03:20:34.501Z,91.49
2017-01-04T03:21:43.185Z,92.14
2017-01-04T03:22:51.871Z,91.86
2017-01-04T03:24:00.558Z,91.86
2017-01-04T03:25:09.251Z,92.33
2017-01-04T03:26:17.936Z,92.14
2017-01-04T03:27:26.623Z,91.96
2017-01-04T03:28:35.305Z,91.39
2017-01-04T03:29:44.020Z,91.11
2017-01-04T03:30:52.713Z,92.05
2017-01-04T03:32:01.428Z,91.58
2017-01-04T03:33:10.115Z,91.39
2017-01-04T03:34:18.800Z,91.3
2017-01-04T03:35:27.485Z,91.01
2017-01-04T03:36:36.170Z,90.35
2017-01-04T03:37:44.856Z,89.31
2017-01-04T03:38:53.547Z,89.03
2017-01-04T03:40:02.236Z,88.46
2017-01-04T03:41:10.919Z,87.33
2017-01-04T03:42:19.601Z,87.33
2017-01-04T03:43:28.287Z,87.8
2017-01-04T03:44:36.975Z,87.8
2017-01-04T03:45:45.659Z,86.48
2017-01-04T03:46:54.337Z,85.91
2017-01-04T03:48:03.031Z,85.72
2017-01-04T03:49:11.715Z,85.72
2017-01-04T03:50:20.404Z,85.82
2017-01-04T03:51:29.087Z,85.91
2017-01-04T03:52:37.779Z,85.72
2017-01-04T03:53:46.465Z,85.96
2017-01-04T03:54:55.148Z,86.19
2017-01-04T03:56:03.838Z,86.05
2017-01-04T03:57:12.521Z,85.77
2017-01-04T03:58:21.208Z,85.11
2017-01-04T03:59:29.893Z,83.97
2017-01-04T04:00:38.577Z,84.16
2017-01-04T04:01:47.261Z,84.22
2017-01-04T04:02:55.978Z,84.31
2017-01-04T04:04:04.665Z,85.06
2017-01-04T04:05:13.356Z,84.41
2017-01-04T04:06:22.043Z,84.59
2017-01-04T04:07:30.795Z,85.06
2017-01-04T04:08:39.506Z,84.41
2017-01-04T04:09:48.192Z,84.5
2017-01-04T04:10:56.878Z,82.99
2017-01-04T04:12:05.564Z,82.89
2017-01-04T04:13:14.359Z,82.99
2017-01-04T04:14:23.045Z,83.08
2017-01-04T04:15:31.729Z,82.32
2017-01-04T04:16:40.415Z,81.57
2017-01-04T04:17:49.105Z,82.51
2017-01-04T04:18:57.790Z,82.42
2017-01-04T04:20:06.473Z,82.51
2017-01-04T04:21:15.160Z,81.76
2017-01-04T04:22:23.850Z,81.2
2017-01-04T04:23:32.529Z,81.29
2017-01-04T04:24:41.215Z,80.91
2017-01-04T04:25:49.895Z,80.82
2017-01-04T04:26:58.580Z,81.1
2017-01-04T04:28:07.270Z,81.2
2017-01-04T04:29:15.959Z,82.04
2017-01-04T04:30:24.692Z,82.14
2017-01-04T04:31:33.378Z,82.04
2017-01-04T04:32:42.058Z,81.85
2017-01-04T04:33:50.743Z,81.76
2017-01-04T04:34:59.427Z,80.06
2017-01-04T04:36:08.143Z,80.15
2017-01-04T04:37:16.832Z,80.63
2017-01-04T04:38:25.519Z,80.53
2017-01-04T04:39:34.209Z,81.01
2017-01-04T04:40:42.896Z,81.29
2017-01-04T04:41:51.605Z,81.2
2017-01-04T04:43:00.288Z,80.63
2017-01-04T04:44:08.979Z,80.91
2017-01-04T04:45:17.664Z,80.82
2017-01-04T04:46:26.348Z,80.63
2017-01-04T04:47:35.034Z,81.01
2017-01-04T04:48:43.730Z,81.1
2017-01-04T04:49:52.411Z,81.1
2017-01-04T04:51:01.096Z,80.72
2017-01-04T04:52:09.783Z,79.97
2017-01-04T04:53:18.501Z,80.06
2017-01-04T04:54:27.186Z,81.85
2017-01-04T04:55:35.872Z,82.28
2017-01-04T04:56:44.558Z,80.25
2017-01-04T04:57:53.251Z,79.87
2017-01-04T04:59:01.943Z,80.76
2017-01-04T05:00:10.636Z,80.44
2017-01-04T05:01:19.319Z,80.34
2017-01-04T05:02:28.003Z,81.1
2017-01-04T05:03:36.705Z,81.61
2017-01-04T05:04:45.394Z,81.95
2017-01-04T05:05:54.085Z,81.85
2017-01-04T05:07:02.774Z,80.91
2017-01-04T05:08:11.457Z,81.61
2017-01-04T05:09:20.141Z,81.52
2017-01-04T05:10:31.132Z,81.61
2017-01-04T05:11:39.818Z,81.33
2017-01-04T05:12:48.508Z,81.61
2017-01-04T05:13:57.193Z,81.8
2017-01-04T05:15:05.876Z,81.23
2017-01-04T05:16:14.937Z,81.8
2017-01-04T05:17:23.618Z,81.42
2017-01-04T05:18:32.302Z,80.66
2017-01-04T05:19:40.989Z,80.29
2017-01-04T05:20:49.669Z,80.29
2017-01-04T05:21:58.403Z,79.35
2017-01-04T05:23:07.092Z,79.53
2017-01-04T05:24:15.782Z,79.25
2017-01-04T05:25:24.466Z,79.25
2017-01-04T05:26:33.156Z,78.5
2017-01-04T05:27:41.890Z,79.16
2017-01-04T05:28:50.582Z,80
2017-01-04T05:29:59.265Z,79.82
2017-01-04T05:31:07.953Z,79.91
2017-01-04T05:32:16.639Z,80.48
2017-01-04T05:33:25.419Z,80
2017-01-04T05:34:34.101Z,79.06
2017-01-04T05:35:42.785Z,78.97
2017-01-04T05:36:51.500Z,78.78
2017-01-04T05:38:00.183Z,78.97
2017-01-04T05:39:08.944Z,78.31
2017-01-04T05:40:17.636Z,77.55
2017-01-04T05:41:26.320Z,77.36
2017-01-04T05:42:35.004Z,77.64
2017-01-04T05:43:43.688Z,77.17
2017-01-04T05:44:52.423Z,76.7
2017-01-04T05:46:01.111Z,77.08
2017-01-04T05:47:09.801Z,78.02
2017-01-04T05:48:18.482Z,77.55
2017-01-04T05:49:27.170Z,77.36
2017-01-04T05:50:35.907Z,77.17
2017-01-04T05:51:44.593Z,77.45
2017-01-04T05:52:53.276Z,77.55
2017-01-04T05:54:01.964Z,77.17
2017-01-04T05:55:10.647Z,77.36
2017-01-04T05:56:19.387Z,76.32
2017-01-04T05:57:28.071Z,76.32
2017-01-04T05:58:36.759Z,75.76
2017-01-04T05:59:45.451Z,76.7
2017-01-04T06:00:54.133Z,75.57
2017-01-04T06:02:02.869Z,74.9
2017-01-04T06:03:11.956Z,73.86
2017-01-04T06:04:20.641Z,73.11
2017-01-04T06:05:29.331Z,72.92
2017-01-04T06:06:38.010Z,73.02
2017-01-04T06:07:46.741Z,73.77
2017-01-04T06:08:55.427Z,74.05
2017-01-04T06:10:04.116Z,73.21
2017-01-04T06:11:12.829Z,73.02
2017-01-04T06:12:21.512Z,72.83
2017-01-04T06:13:30.246Z,73.21
2017-01-04T06:14:38.930Z,73.39
2017-01-04T06:15:47.614Z,71.88
2017-01-04T06:16:56.295Z,71.22
2017-01-04T06:18:04.985Z,71.12
2017-01-04T06:19:14.150Z,71.79
2017-01-04T06:20:22.833Z,71.98
2017-01-04T06:21:31.522Z,72.26
2017-01-04T06:22:40.204Z,73.02
2017-01-04T06:23:48.896Z,73.86
2017-01-04T06:24:57.626Z,73.86
2017-01-04T06:26:06.313Z,73.68
2017-01-04T06:27:15.065Z,73.96
2017-01-04T06:28:23.751Z,73.96
2017-01-04T06:29:32.463Z,73.86
2017-01-04T06:30:41.194Z,73.68
2017-01-04T06:31:49.875Z,73.68
2017-01-04T06:32:58.596Z,73.58
2017-01-04T06:34:07.285Z,72.83
2017-01-04T06:35:15.974Z,71.79
2017-01-04T06:36:24.707Z,71.03
2017-01-04T06:37:33.391Z,71.5
2017-01-04T06:38:42.102Z,71.41
2017-01-04T06:39:50.783Z,71.79
2017-01-04T06:40:59.469Z,71.69
2017-01-04T06:42:08.704Z,71.03
2017-01-04T06:43:17.394Z,71.98
2017-01-04T06:44:26.087Z,71.5
2017-01-04T06:45:34.775Z,71.69
2017-01-04T06:46:43.528Z,70.56
2017-01-04T06:47:52.265Z,70.47
2017-01-04T06:49:00.946Z,69.81
2017-01-04T06:50:09.651Z,69.52
2017-01-04T06:51:18.332Z,69.05
2017-01-04T06:52:27.016Z,68.86
2017-01-04T06:53:35.752Z,69.33
2017-01-04T06:54:44.460Z,69.43
2017-01-04T06:55:53.155Z,69.33
2017-01-04T06:57:01.836Z,68.67
2017-01-04T06:58:10.556Z,68.95
2017-01-04T06:59:19.291Z,67.72
2017-01-04T07:00:27.974Z,67.32
2017-01-04T07:01:36.665Z,67.79
2017-01-04T07:02:45.350Z,67.5
2017-01-04T07:03:54.038Z,67.63
2017-01-04T07:05:02.765Z,66.84
2017-01-04T07:06:11.451Z,66.18
2017-01-04T07:07:20.140Z,64.48
2017-01-04T07:08:28.827Z,64.58
2017-01-04T07:09:37.510Z,64.48
2017-01-04T07:10:46.244Z,63.73
2017-01-04T07:11:54.928Z,63.73
2017-01-04T07:13:03.638Z,63.92
2017-01-04T07:14:12.316Z,64.29
2017-01-04T07:15:21.002Z,64.2
2017-01-04T07:16:29.733Z,63.73
2017-01-04T07:17:38.416Z,64.48
2017-01-04T07:18:47.096Z,64.2
2017-01-04T07:19:55.781Z,63.35
2017-01-04T07:21:04.465Z,62.4
2017-01-04T07:22:13.242Z,62.02
2017-01-04T07:23:21.923Z,62.12
2017-01-04T07:24:30.605Z,62.4
2017-01-04T07:25:39.300Z,62.02
2017-01-04T07:26:47.992Z,61.08
2017-01-04T07:27:56.730Z,61.18
2017-01-04T07:29:05.416Z,61.27
2017-01-04T07:30:14.111Z,60.8
2017-01-04T07:31:22.795Z,60.99
2017-01-04T07:32:31.483Z,61.08
2017-01-04T07:33:40.218Z,62.12
2017-01-04T07:34:48.896Z,62.02
2017-01-04T07:35:57.581Z,62.59
2017-01-04T07:37:06.262Z,62.88
2017-01-04T07:38:14.948Z,63.07
2017-01-04T07:39:23.692Z,63.26
2017-01-04T07:40:32.372Z,63.26
2017-01-04T07:41:41.057Z,63.54
2017-01-04T07:42:49.748Z,63.54
2017-01-04T07:43:58.436Z,64.11
2017-01-04T07:45:07.169Z,63.35
2017-01-04T07:46:15.863Z,63.54
2017-01-04T07:47:24.553Z,63.35
2017-01-04T07:48:33.238Z,64.11
2017-01-04T07:49:41.923Z,64.11
2017-01-04T07:50:50.658Z,64.11
2017-01-04T07:51:59.338Z,64.86
2017-01-04T07:53:08.018Z,64.2
2017-01-04T07:54:16.715Z,63.45
2017-01-04T07:55:25.399Z,62.78
2017-01-04T07:56:34.130Z,62.69
2017-01-04T07:57:42.820Z,62.12
2017-01-04T07:58:51.509Z,62.21
2017-01-04T08:00:00.201Z,62.31
2017-01-04T08:01:08.882Z,63.73
2017-01-04T08:02:17.613Z,63.07
2017-01-04T08:03:26.298Z,63.16
2017-01-04T08:04:34.978Z,63.26
2017-01-04T08:05:43.659Z,63.26
2017-01-04T08:06:52.342Z,63.26
2017-01-04T08:08:01.084Z,63.63
2017-01-04T08:09:09.804Z,63.26
2017-01-04T08:10:18.480Z,62.31
2017-01-04T08:11:27.168Z,62.59
2017-01-04T08:12:35.851Z,63.16
2017-01-04T08:13:44.999Z,63.16
2017-01-04T08:14:53.685Z,62.59
2017-01-04T08:16:02.369Z,62.69
2017-01-04T08:17:11.050Z,63.54
2017-01-04T08:18:19.739Z,63.26
2017-01-04T08:19:28.467Z,64.64
2017-01-04T08:20:37.155Z,63.6
2017-01-04T08:21:45.843Z,62.75
2017-01-04T08:22:54.524Z,62.94
2017-01-04T08:24:03.216Z,62.47
2017-01-04T08:25:11.947Z,62.84
2017-01-04T08:26:20.636Z,63.32
2017-01-04T08:27:29.325Z,64.07
2017-01-04T08:28:38.009Z,64.36
2017-01-04T08:29:46.689Z,63.41
2017-01-04T08:30:55.424Z,63.51
2017-01-04T08:32:04.113Z,63.32
2017-01-04T08:33:12.797Z,63.7
2017-01-04T08:34:21.474Z,63.51
2017-01-04T08:35:30.154Z,64.17
2017-01-04T08:36:39.144Z,64.07
2017-01-04T08:37:47.822Z,64.64
2017-01-04T08:38:56.513Z,64.36
2017-01-04T08:40:05.201Z,64.54
2017-01-04T08:41:14.292Z,64.17
2017-01-04T08:42:23.027Z,64.26
2017-01-04T08:43:31.720Z,64.36
2017-01-04T08:44:40.399Z,64.26
2017-01-04T08:45:49.083Z,63.7
2017-01-04T08:46:57.762Z,63.7
2017-01-04T08:48:06.794Z,63.6
2017-01-04T08:49:15.471Z,63.51
2017-01-04T08:50:24.153Z,63.22
2017-01-04T08:51:32.834Z,63.32
2017-01-04T08:52:41.520Z,63.41
2017-01-04T08:53:50.255Z,63.51
2017-01-04T08:54:58.970Z,64.36
2017-01-04T08:56:07.651Z,64.64
2017-01-04T08:57:16.340Z,65.01
2017-01-04T08:58:25.024Z,64.83
2017-01-04T08:59:33.763Z,65.01
2017-01-04T09:00:42.448Z,64.83
2017-01-04T09:01:51.130Z,64.83
2017-01-04T09:02:59.819Z,64.36
2017-01-04T09:04:08.505Z,64.26
2017-01-04T09:05:17.194Z,64.45
2017-01-04T09:06:25.884Z,64.64
2017-01-04T09:07:34.571Z,62.94
2017-01-04T09:08:43.249Z,62.18
2017-01-04T09:09:51.933Z,62.37
2017-01-04T09:11:00.615Z,62.84
2017-01-04T09:12:09.305Z,63.7
2017-01-04T09:13:17.991Z,63.6
2017-01-04T09:14:26.680Z,63.41
2017-01-04T09:15:35.373Z,63.41
2017-01-04T09:16:44.063Z,63.89
2017-01-04T09:17:52.746Z,64.36
2017-01-04T09:19:01.437Z,64.17
2017-01-04T09:20:10.182Z,63.89
2017-01-04T09:21:18.863Z,63.6
2017-01-04T09:22:27.850Z,63.7
2017-01-04T09:23:36.534Z,63.22
2017-01-04T09:24:45.218Z,63.13
2017-01-04T09:25:53.901Z,62.28
2017-01-04T09:27:02.587Z,63.6
2017-01-04T09:28:11.333Z,63.22
2017-01-04T09:29:20.023Z,63.51
2017-01-04T09:30:28.743Z,62.75
2017-01-04T09:31:37.431Z,63.32
2017-01-04T09:32:46.113Z,63.03
2017-01-04T09:33:54.800Z,63.41
2017-01-04T09:35:03.484Z,62.18
2017-01-04T09:36:12.166Z,62.47
2017-01-04T09:37:20.854Z,61.9
2017-01-04T09:38:29.537Z,62.28
2017-01-04T09:39:38.223Z,62.28
2017-01-04T09:40:46.911Z,62.84
2017-01-04T09:41:55.597Z,63.03
2017-01-04T09:43:04.278Z,62.18
2017-01-04T09:44:12.971Z,61.24
2017-01-04T09:45:21.665Z,61.15
2017-01-04T09:46:30.352Z,60.96
2017-01-04T09:47:39.032Z,61.9
2017-01-04T09:48:47.720Z,62.28
2017-01-04T09:49:56.418Z,63.51
2017-01-04T09:51:05.103Z,62.28
2017-01-04T09:52:13.787Z,62.09
2017-01-04T09:53:22.870Z,61.8
2017-01-04T09:54:31.555Z,62.37
2017-01-04T09:55:40.237Z,61.43
2017-01-04T09:56:48.922Z,61.9
2017-01-04T09:57:57.610Z,61.8
2017-01-04T09:59:06.288Z,62.09
2017-01-04T10:00:14.971Z,60.96
2017-01-04T10:01:23.661Z,61.24
2017-01-04T10:02:32.342Z,62.28
2017-01-04T10:03:41.022Z,62.75
2017-01-04T10:04:49.708Z,62.75
2017-01-04T10:05:58.387Z,61.9
2017-01-04T10:07:07.075Z,61.33
2017-01-04T10:08:15.761Z,61.9
2017-01-04T10:09:24.447Z,62.28
2017-01-04T10:10:33.172Z,62.18
2017-01-04T10:11:41.856Z,62.37
2017-01-04T10:12:50.545Z,62.47
2017-01-04T10:13:59.232Z,61.9
2017-01-04T10:15:07.920Z,61.99
2017-01-04T10:16:16.611Z,61.99
2017-01-04T10:17:25.292Z,63.13
2017-01-04T10:18:33.998Z,61.9
2017-01-04T10:19:42.681Z,61.33
2017-01-04T10:20:51.361Z,61.05
2017-01-04T10:22:00.046Z,61.33
2017-01-04T10:23:08.728Z,61.99
2017-01-04T10:24:17.504Z,62.09
2017-01-04T10:25:26.184Z,62.18
2017-01-04T10:26:34.867Z,61.15
2017-01-04T10:27:43.547Z,61.71
2017-01-04T10:28:52.228Z,62.28
2017-01-04T10:30:00.910Z,62.28
2017-01-04T10:31:09.604Z,62.37
2017-01-04T10:32:18.283Z,62.28
2017-01-04T10:33:26.966Z,62.09
2017-01-04T10:34:35.653Z,62.09
2017-01-04T10:35:44.361Z,62.37
2017-01-04T10:36:53.043Z,62.18
2017-01-04T10:38:01.732Z,62.56
2017-01-04T10:39:10.419Z,61.52
2017-01-04T10:40:19.106Z,62.09
2017-01-04T10:41:27.790Z,61.71
2017-01-04T10:42:36.499Z,61.15
2017-01-04T10:43:45.178Z,61.24
2017-01-04T10:44:53.863Z,61.52
2017-01-04T10:46:02.555Z,61.43
2017-01-04T10:47:11.234Z,61.99
2017-01-04T10:48:19.916Z,61.24
2017-01-04T10:49:28.597Z,61.24
2017-01-04T10:50:37.282Z,60.68
2017-01-04T10:51:45.967Z,61.24
2017-01-04T10:52:54.652Z,61.24
2017-01-04T10:54:03.334Z,61.43
2017-01-04T10:55:12.025Z,61.33
2017-01-04T10:56:20.707Z,61.61
2017-01-04T10:57:29.785Z,61.52
2017-01-04T10:58:38.464Z,61.33
2017-01-04T10:59:47.148Z,61.24
2017-01-04T11:00:55.829Z,61.52
2017-01-04T11:02:04.513Z,62.37
2017-01-04T11:03:13.199Z,61.8
2017-01-04T11:04:21.911Z,61.9
2017-01-04T11:05:30.593Z,61.99
2017-01-04T11:06:39.289Z,61.99
2017-01-04T11:07:47.975Z,62.37
2017-01-04T11:08:56.656Z,62.37
2017-01-04T11:10:05.333Z,62.47
2017-01-04T11:11:14.011Z,63.41
2017-01-04T11:12:22.696Z,63.6
2017-01-04T11:13:31.378Z,63.51
2017-01-04T11:14:40.065Z,63.32
2017-01-04T11:15:48.744Z,63.79
2017-01-04T11:16:57.422Z,64.54
2017-01-04T11:18:06.115Z,64.26
2017-01-04T11:19:14.804Z,63.89
2017-01-04T11:20:23.487Z,63.7
2017-01-04T11:21:32.169Z,63.51
2017-01-04T11:22:40.856Z,63.41
2017-01-04T11:23:49.540Z,64.07
2017-01-04T11:24:58.222Z,64.45
2017-01-04T11:26:06.906Z,65.01
2017-01-04T11:27:15.586Z,65.3
2017-01-04T11:28:24.271Z,65.67
2017-01-04T11:29:32.956Z,65.11
2017-01-04T11:30:41.638Z,65.2
2017-01-04T11:31:50.321Z,65.96
2017-01-04T11:32:59.004Z,66.05
2017-01-04T11:34:07.684Z,65.77
2017-01-04T11:35:16.371Z,65.01
2017-01-04T11:36:25.049Z,65.67
2017-01-04T11:37:33.737Z,65.77
2017-01-04T11:38:42.421Z,65.11
2017-01-04T11:39:51.108Z,64.83
2017-01-04T11:40:59.788Z,64.54
2017-01-04T11:42:08.467Z,65.2
2017-01-04T11:43:17.149Z,65.3
2017-01-04T11:44:25.846Z,64.64
2017-01-04T11:45:34.558Z,64.54
2017-01-04T11:46:43.240Z,64.92
2017-01-04T11:47:51.924Z,64.54
2017-01-04T11:49:00.608Z,65.67
2017-01-04T11:50:09.294Z,65.58
2017-01-04T11:51:17.973Z,65.3
2017-01-04T11:52:26.662Z,65.39
2017-01-04T11:53:35.361Z,66.24
2017-01-04T11:54:44.052Z,66.52
2017-01-04T11:55:52.737Z,66.62
2017-01-04T11:57:01.420Z,66.52
2017-01-04T11:58:10.105Z,65.67
2017-01-04T11:59:18.791Z,65.77
2017-01-04T12:00:27.473Z,66.15
2017-01-04T12:01:36.153Z,66.62
2017-01-04T12:02:44.837Z,67.09
2017-01-04T12:03:53.531Z,67.28
2017-01-04T12:05:02.212Z,65.86
2017-01-04T12:06:10.897Z,65.96
2017-01-04T12:07:19.579Z,65.67
2017-01-04T12:08:28.293Z,65.77
2017-01-04T12:09:36.972Z,66.15
2017-01-04T12:10:45.651Z,65.2
2017-01-04T12:11:54.338Z,65.2
2017-01-04T12:13:03.022Z,64.54
2017-01-04T12:14:11.704Z,64.83
2017-01-04T12:15:20.390Z,65.3
2017-01-04T12:16:29.076Z,65.77
2017-01-04T12:17:37.765Z,66.15
2017-01-04T12:18:46.447Z,66.43
2017-01-04T12:19:55.124Z,66.15
2017-01-04T12:21:03.805Z,65.67
2017-01-04T12:22:12.491Z,65.01
2017-01-04T12:23:21.577Z,64.73
2017-01-04T12:24:30.658Z,65.01
2017-01-04T12:25:39.343Z,64.64
2017-01-04T12:26:48.028Z,65.2
2017-01-04T12:27:56.712Z,66.24
2017-01-04T12:29:05.864Z,66.15
2017-01-04T12:30:14.549Z,66.24
2017-01-04T12:31:23.254Z,64.92
2017-01-04T12:32:31.939Z,65.2
2017-01-04T12:33:40.638Z,65.3
2017-01-04T12:34:49.320Z,65.11
2017-01-04T12:35:58.004Z,64.07
2017-01-04T12:37:06.694Z,64.36
2017-01-04T12:38:15.378Z,64.83
2017-01-04T12:39:24.059Z,64.92
2017-01-04T12:40:32.741Z,64.83
2017-01-04T12:41:41.425Z,64.54
2017-01-04T12:42:50.109Z,63.79
2017-01-04T12:43:58.817Z,63.7
2017-01-04T12:45:07.556Z,64.54
2017-01-04T12:46:16.244Z,63.79
2017-01-04T12:47:24.937Z,63.22
2017-01-04T12:48:33.624Z,63.51
2017-01-04T12:49:42.303Z,63.22
2017-01-04T12:50:50.986Z,63.51
2017-01-04T12:51:59.684Z,64.45
2017-01-04T12:53:08.367Z,65.39
2017-01-04T12:54:17.052Z,65.01
2017-01-04T12:55:25.738Z,64.17
2017-01-04T12:56:34.421Z,64.07
2017-01-04T12:57:43.105Z,63.89
2017-01-04T12:58:51.804Z,64.07
2017-01-04T13:00:00.486Z,64.26
2017-01-04T13:01:09.185Z,64.64
2017-01-04T13:02:17.873Z,64.45
2017-01-04T13:03:26.558Z,64.36
2017-01-04T13:04:35.249Z,64.45
2017-01-04T13:05:43.933Z,64.07
2017-01-04T13:06:52.622Z,64.83
2017-01-04T13:08:01.306Z,65.11
2017-01-04T13:09:09.988Z,65.2
2017-01-04T13:10:18.668Z,64.45
2017-01-04T13:11:27.353Z,64.83
2017-01-04T13:12:36.056Z,65.2
2017-01-04T13:13:44.745Z,65.2
2017-01-04T13:14:53.430Z,64.64
2017-01-04T13:16:02.115Z,65.11
2017-01-04T13:17:10.795Z,64.07
2017-01-04T13:18:19.481Z,64.36
2017-01-04T13:19:28.161Z,64.36
2017-01-04T13:20:36.847Z,64.64
2017-01-04T13:21:45.534Z,64.83
2017-01-04T13:22:54.322Z,65.11
2017-01-04T13:24:03.000Z,65.3
2017-01-04T13:25:11.679Z,64.83
2017-01-04T13:26:20.762Z,64.92
2017-01-04T13:27:29.444Z,65.2
2017-01-04T13:28:38.129Z,65.58
2017-01-04T13:29:46.810Z,65.48
2017-01-04T13:30:55.488Z,65.77
2017-01-04T13:32:04.164Z,65.67
2017-01-04T13:33:12.850Z,64.92
2017-01-04T13:34:21.533Z,65.01
2017-01-04T13:35:30.213Z,65.11
2017-01-04T13:36:38.900Z,65.01
2017-01-04T13:37:47.585Z,65.58
2017-01-04T13:38:56.267Z,66.05
2017-01-04T13:40:04.948Z,66.15
2017-01-04T13:41:13.628Z,65.58
2017-01-04T13:42:22.316Z,65.11
2017-01-04T13:43:31.037Z,64.54
2017-01-04T13:44:39.719Z,65.2
2017-01-04T13:45:48.401Z,65.48
2017-01-04T13:46:57.082Z,65.96
2017-01-04T13:48:05.764Z,65.58
2017-01-04T13:49:14.448Z,66.15
2017-01-04T13:50:23.125Z,65.67
2017-01-04T13:51:31.808Z,66.24
2017-01-04T13:52:40.502Z,65.67
2017-01-04T13:53:49.184Z,66.43
2017-01-04T13:54:57.869Z,66.24
2017-01-04T13:56:06.557Z,65.48
2017-01-04T13:57:15.245Z,65.48
2017-01-04T13:58:23.923Z,66.15
2017-01-04T13:59:32.611Z,65.96
2017-01-04T14:00:41.292Z,65.86
2017-01-04T14:01:49.990Z,66.34
2017-01-04T14:02:58.679Z,66.52
2017-01-04T14:04:07.362Z,67.38
2017-01-04T14:05:16.072Z,66.05
2017-01-04T14:06:24.756Z,65.96
2017-01-04T14:07:33.438Z,65.77
2017-01-04T14:08:42.127Z,65.86
2017-01-04T14:09:50.808Z,65.67
2017-01-04T14:10:59.493Z,65.01
2017-01-04T14:12:08.180Z,65.67
2017-01-04T14:13:16.869Z,65.58
2017-01-04T14:14:25.556Z,66.15
2017-01-04T14:15:34.237Z,65.96
2017-01-04T14:16:43.321Z,66.34
2017-01-04T14:17:52.012Z,66.43
2017-01-04T14:19:00.711Z,66.34
2017-01-04T14:20:09.390Z,66.24
2017-01-04T14:21:18.108Z,66.24
2017-01-04T14:22:26.786Z,66.52
2017-01-04T14:23:35.469Z,66.62
2017-01-04T14:24:44.151Z,66.71
2017-01-04T14:25:52.832Z,67.85
2017-01-04T14:27:01.512Z,68.32
2017-01-04T14:28:10.194Z,67.66
2017-01-04T14:29:18.879Z,68.04
2017-01-04T14:30:27.565Z,67.57
2017-01-04T14:31:36.249Z,67.85
2017-01-04T14:32:44.939Z,68.66
2017-01-04T14:33:53.620Z,69.32
2017-01-04T14:35:02.318Z,68.79
2017-01-04T14:36:11.003Z,69.17
2017-01-04T14:37:19.686Z,69.26
2017-01-04T14:38:28.374Z,69.45
2017-01-04T14:39:37.057Z,69.79
2017-01-04T14:40:45.737Z,70.64
2017-01-04T14:41:54.417Z,70.64
2017-01-04T14:43:03.105Z,72.15
2017-01-04T14:44:11.793Z,72.81
2017-01-04T14:45:20.480Z,74.69
2017-01-04T14:46:29.166Z,75.54
2017-01-04T14:47:37.855Z,75.36